sensor_id;sensor_type;location;lat;lon;timestamp;P1;durP1;ratioP1;P2;durP2;ratioP2
78296;SDS011;67555;47.660;19.622;2023-10-13T00:00:26;25.10;;;11.98;;
78296;SDS011;67555;47.660;19.622;2023-10-13T00:02:59;31.27;;;11.98;;
78296;SDS011;67555;47.660;19.622;2023-10-13T00:05:25;29.27;;;12.43;;
78296;SDS011;67555;47.660;19.622;2023-10-13T00:08:02;21.77;;;12.88;;
78296;SDS011;67555;47.660;19.622;2023-10-13T00:10:29;24.70;;;12.45;;
78296;SDS011;67555;47.660;19.622;2023-10-13T00:12:56;21.00;;;11.77;;
78296;SDS011;67555;47.660;19.622;2023-10-13T00:15:51;23.42;;;11.80;;
78296;SDS011;67555;47.660;19.622;2023-10-13T00:18:25;27.05;;;12.60;;
78296;SDS011;67555;47.660;19.622;2023-10-13T00:20:52;21.02;;;12.23;;
78296;SDS011;67555;47.660;19.622;2023-10-13T00:23:21;27.20;;;12.88;;
78296;SDS011;67555;47.660;19.622;2023-10-13T00:25:48;31.27;;;12.82;;
78296;SDS011;67555;47.660;19.622;2023-10-13T00:28:18;31.02;;;14.00;;
78296;SDS011;67555;47.660;19.622;2023-10-13T00:30:51;29.95;;;13.18;;
78296;SDS011;67555;47.660;19.622;2023-10-13T00:33:24;26.30;;;12.27;;
78296;SDS011;67555;47.660;19.622;2023-10-13T00:35:50;25.88;;;12.85;;
78296;SDS011;67555;47.660;19.622;2023-10-13T00:38:22;25.80;;;13.38;;
78296;SDS011;67555;47.660;19.622;2023-10-13T00:40:49;22.50;;;12.77;;
78296;SDS011;67555;47.660;19.622;2023-10-13T00:43:19;25.38;;;12.23;;
78296;SDS011;67555;47.660;19.622;2023-10-13T00:45:47;19.27;;;11.75;;
78296;SDS011;67555;47.660;19.622;2023-10-13T00:48:32;25.45;;;13.30;;
78296;SDS011;67555;47.660;19.622;2023-10-13T00:51:11;21.48;;;11.88;;
78296;SDS011;67555;47.660;19.622;2023-10-13T00:53:47;25.73;;;12.35;;
78296;SDS011;67555;47.660;19.622;2023-10-13T00:56:14;21.25;;;11.43;;
78296;SDS011;67555;47.660;19.622;2023-10-13T00:58:52;20.00;;;11.52;;
78296;SDS011;67555;47.660;19.622;2023-10-13T01:01:22;21.35;;;11.73;;
78296;SDS011;67555;47.660;19.622;2023-10-13T01:03:53;24.92;;;12.90;;
78296;SDS011;67555;47.660;19.622;2023-10-13T01:06:26;27.02;;;12.88;;
78296;SDS011;67555;47.660;19.622;2023-10-13T01:09:13;19.05;;;11.32;;
78296;SDS011;67555;47.660;19.622;2023-10-13T01:11:42;29.65;;;14.23;;
78296;SDS011;67555;47.660;19.622;2023-10-13T01:14:12;21.58;;;11.77;;
78296;SDS011;67555;47.660;19.622;2023-10-13T01:16:40;26.23;;;13.25;;
78296;SDS011;67555;47.660;19.622;2023-10-13T01:19:26;26.95;;;12.30;;
78296;SDS011;67555;47.660;19.622;2023-10-13T01:21:53;17.95;;;12.02;;
78296;SDS011;67555;47.660;19.622;2023-10-13T01:24:26;26.80;;;12.75;;
78296;SDS011;67555;47.660;19.622;2023-10-13T01:26:56;20.50;;;12.07;;
78296;SDS011;67555;47.660;19.622;2023-10-13T01:29:22;28.23;;;13.55;;
78296;SDS011;67555;47.660;19.622;2023-10-13T01:31:54;36.15;;;12.25;;
78296;SDS011;67555;47.660;19.622;2023-10-13T01:34:20;24.35;;;12.70;;
78296;SDS011;67555;47.660;19.622;2023-10-13T01:36:49;23.25;;;12.35;;
78296;SDS011;67555;47.660;19.622;2023-10-13T01:39:17;27.23;;;13.02;;
78296;SDS011;67555;47.660;19.622;2023-10-13T01:41:44;24.40;;;11.90;;
78296;SDS011;67555;47.660;19.622;2023-10-13T01:44:10;28.83;;;13.02;;
78296;SDS011;67555;47.660;19.622;2023-10-13T01:46:41;21.20;;;10.45;;
78296;SDS011;67555;47.660;19.622;2023-10-13T01:49:29;22.10;;;10.90;;
78296;SDS011;67555;47.660;19.622;2023-10-13T01:51:55;18.38;;;10.43;;
78296;SDS011;67555;47.660;19.622;2023-10-13T01:54:21;28.25;;;12.48;;
78296;SDS011;67555;47.660;19.622;2023-10-13T01:56:46;24.33;;;11.70;;
78296;SDS011;67555;47.660;19.622;2023-10-13T01:59:13;22.58;;;10.90;;
78296;SDS011;67555;47.660;19.622;2023-10-13T02:01:40;19.38;;;10.60;;
78296;SDS011;67555;47.660;19.622;2023-10-13T02:04:07;21.17;;;11.40;;
78296;SDS011;67555;47.660;19.622;2023-10-13T02:06:37;21.20;;;10.32;;
78296;SDS011;67555;47.660;19.622;2023-10-13T02:09:04;18.75;;;10.15;;
78296;SDS011;67555;47.660;19.622;2023-10-13T02:11:51;22.30;;;10.98;;
78296;SDS011;67555;47.660;19.622;2023-10-13T02:14:21;22.50;;;11.35;;
78296;SDS011;67555;47.660;19.622;2023-10-13T02:16:53;23.08;;;10.43;;
78296;SDS011;67555;47.660;19.622;2023-10-13T02:19:37;19.17;;;10.68;;
78296;SDS011;67555;47.660;19.622;2023-10-13T02:22:09;21.67;;;11.23;;
78296;SDS011;67555;47.660;19.622;2023-10-13T02:24:36;36.67;;;12.30;;
78296;SDS011;67555;47.660;19.622;2023-10-13T02:27:08;22.95;;;11.27;;
78296;SDS011;67555;47.660;19.622;2023-10-13T02:29:39;22.73;;;10.10;;
78296;SDS011;67555;47.660;19.622;2023-10-13T02:32:06;20.75;;;9.93;;
78296;SDS011;67555;47.660;19.622;2023-10-13T02:34:43;21.67;;;10.73;;
78296;SDS011;67555;47.660;19.622;2023-10-13T02:37:10;26.02;;;11.27;;
78296;SDS011;67555;47.660;19.622;2023-10-13T02:39:36;23.67;;;11.10;;
78296;SDS011;67555;47.660;19.622;2023-10-13T02:42:06;22.20;;;10.30;;
78296;SDS011;67555;47.660;19.622;2023-10-13T02:44:33;21.42;;;10.68;;
78296;SDS011;67555;47.660;19.622;2023-10-13T02:47:01;20.92;;;10.70;;
78296;SDS011;67555;47.660;19.622;2023-10-13T02:49:31;20.77;;;10.65;;
78296;SDS011;67555;47.660;19.622;2023-10-13T02:51:59;21.58;;;10.35;;
78296;SDS011;67555;47.660;19.622;2023-10-13T02:54:30;18.85;;;10.25;;
78296;SDS011;67555;47.660;19.622;2023-10-13T02:57:16;23.90;;;10.60;;
78296;SDS011;67555;47.660;19.622;2023-10-13T02:59:43;23.42;;;10.25;;
78296;SDS011;67555;47.660;19.622;2023-10-13T03:02:13;22.00;;;10.85;;
78296;SDS011;67555;47.660;19.622;2023-10-13T03:04:48;18.23;;;9.75;;
78296;SDS011;67555;47.660;19.622;2023-10-13T03:09:53;26.13;;;9.52;;
78296;SDS011;67555;47.660;19.622;2023-10-13T03:12:23;18.30;;;9.85;;
78296;SDS011;67555;47.660;19.622;2023-10-13T03:14:49;17.60;;;10.63;;
78296;SDS011;67555;47.660;19.622;2023-10-13T03:17:37;16.52;;;9.38;;
78296;SDS011;67555;47.660;19.622;2023-10-13T03:20:08;19.83;;;9.32;;
78296;SDS011;67555;47.660;19.622;2023-10-13T03:22:47;18.58;;;9.10;;
78296;SDS011;67555;47.660;19.622;2023-10-13T03:25:17;21.98;;;10.40;;
78296;SDS011;67555;47.660;19.622;2023-10-13T03:28:02;21.58;;;11.35;;
78296;SDS011;67555;47.660;19.622;2023-10-13T03:30:32;21.13;;;10.18;;
78296;SDS011;67555;47.660;19.622;2023-10-13T03:33:03;24.67;;;10.80;;
78296;SDS011;67555;47.660;19.622;2023-10-13T03:35:35;17.48;;;10.18;;
78296;SDS011;67555;47.660;19.622;2023-10-13T03:38:08;19.92;;;10.48;;
78296;SDS011;67555;47.660;19.622;2023-10-13T03:40:44;19.88;;;9.05;;
78296;SDS011;67555;47.660;19.622;2023-10-13T03:43:14;19.80;;;10.57;;
78296;SDS011;67555;47.660;19.622;2023-10-13T03:45:46;17.73;;;10.10;;
78296;SDS011;67555;47.660;19.622;2023-10-13T03:48:17;26.60;;;10.82;;
78296;SDS011;67555;47.660;19.622;2023-10-13T03:50:50;19.05;;;10.73;;
78296;SDS011;67555;47.660;19.622;2023-10-13T03:53:38;19.52;;;10.48;;
78296;SDS011;67555;47.660;19.622;2023-10-13T03:56:19;19.55;;;10.38;;
78296;SDS011;67555;47.660;19.622;2023-10-13T03:58:56;17.35;;;9.32;;
78296;SDS011;67555;47.660;19.622;2023-10-13T04:01:30;22.15;;;10.65;;
78296;SDS011;67555;47.660;19.622;2023-10-13T04:04:08;19.67;;;10.60;;
78296;SDS011;67555;47.660;19.622;2023-10-13T04:06:37;19.83;;;10.48;;
78296;SDS011;67555;47.660;19.622;2023-10-13T04:11:55;22.17;;;10.55;;
78296;SDS011;67555;47.660;19.622;2023-10-13T04:14:31;17.88;;;10.15;;
78296;SDS011;67555;47.660;19.622;2023-10-13T04:17:13;20.65;;;10.52;;
78296;SDS011;67555;47.660;19.622;2023-10-13T04:19:40;21.00;;;11.38;;
78296;SDS011;67555;47.660;19.622;2023-10-13T04:22:24;23.08;;;11.13;;
78296;SDS011;67555;47.660;19.622;2023-10-13T04:25:20;20.33;;;10.68;;
78296;SDS011;67555;47.660;19.622;2023-10-13T04:28:09;21.63;;;11.82;;
78296;SDS011;67555;47.660;19.622;2023-10-13T04:30:42;25.02;;;12.18;;
78296;SDS011;67555;47.660;19.622;2023-10-13T04:33:20;18.60;;;11.35;;
78296;SDS011;67555;47.660;19.622;2023-10-13T04:36:13;21.30;;;11.60;;
78296;SDS011;67555;47.660;19.622;2023-10-13T04:38:52;25.90;;;10.70;;
78296;SDS011;67555;47.660;19.622;2023-10-13T04:41:29;34.88;;;13.20;;
78296;SDS011;67555;47.660;19.622;2023-10-13T04:44:05;33.10;;;14.77;;
78296;SDS011;67555;47.660;19.622;2023-10-13T04:46:50;21.83;;;11.60;;
78296;SDS011;67555;47.660;19.622;2023-10-13T04:49:28;20.70;;;12.38;;
78296;SDS011;67555;47.660;19.622;2023-10-13T04:52:14;21.45;;;12.02;;
78296;SDS011;67555;47.660;19.622;2023-10-13T04:55:00;22.23;;;12.48;;
78296;SDS011;67555;47.660;19.622;2023-10-13T04:57:49;19.40;;;11.35;;
78296;SDS011;67555;47.660;19.622;2023-10-13T05:00:25;21.88;;;11.13;;
78296;SDS011;67555;47.660;19.622;2023-10-13T05:03:09;25.30;;;12.05;;
78296;SDS011;67555;47.660;19.622;2023-10-13T05:06:10;22.17;;;11.63;;
78296;SDS011;67555;47.660;19.622;2023-10-13T05:08:56;20.58;;;12.52;;
78296;SDS011;67555;47.660;19.622;2023-10-13T05:11:41;22.00;;;12.95;;
78296;SDS011;67555;47.660;19.622;2023-10-13T05:14:25;17.88;;;11.50;;
78296;SDS011;67555;47.660;19.622;2023-10-13T05:17:09;18.65;;;11.80;;
78296;SDS011;67555;47.660;19.622;2023-10-13T05:19:56;23.20;;;11.65;;
78296;SDS011;67555;47.660;19.622;2023-10-13T05:22:41;20.67;;;11.32;;
78296;SDS011;67555;47.660;19.622;2023-10-13T05:25:25;21.20;;;12.23;;
78296;SDS011;67555;47.660;19.622;2023-10-13T05:28:09;23.25;;;12.13;;
78296;SDS011;67555;47.660;19.622;2023-10-13T05:30:53;20.77;;;11.27;;
78296;SDS011;67555;47.660;19.622;2023-10-13T05:33:39;25.08;;;12.85;;
78296;SDS011;67555;47.660;19.622;2023-10-13T05:36:25;24.58;;;13.07;;
78296;SDS011;67555;47.660;19.622;2023-10-13T05:39:10;22.30;;;12.10;;
78296;SDS011;67555;47.660;19.622;2023-10-13T05:41:55;26.77;;;13.45;;
78296;SDS011;67555;47.660;19.622;2023-10-13T05:44:39;31.90;;;12.95;;
78296;SDS011;67555;47.660;19.622;2023-10-13T05:47:26;24.20;;;13.90;;
78296;SDS011;67555;47.660;19.622;2023-10-13T05:50:07;20.45;;;13.07;;
78296;SDS011;67555;47.660;19.622;2023-10-13T05:52:39;25.35;;;12.10;;
78296;SDS011;67555;47.660;19.622;2023-10-13T05:55:29;21.55;;;12.70;;
78296;SDS011;67555;47.660;19.622;2023-10-13T05:58:14;21.23;;;11.90;;
78296;SDS011;67555;47.660;19.622;2023-10-13T06:00:59;18.75;;;12.55;;
78296;SDS011;67555;47.660;19.622;2023-10-13T06:03:44;24.48;;;11.60;;
78296;SDS011;67555;47.660;19.622;2023-10-13T06:06:28;21.25;;;10.43;;
78296;SDS011;67555;47.660;19.622;2023-10-13T06:09:12;19.00;;;11.30;;
78296;SDS011;67555;47.660;19.622;2023-10-13T06:11:56;18.98;;;11.40;;
78296;SDS011;67555;47.660;19.622;2023-10-13T06:14:49;20.30;;;12.65;;
78296;SDS011;67555;47.660;19.622;2023-10-13T06:17:33;18.33;;;11.10;;
78296;SDS011;67555;47.660;19.622;2023-10-13T06:20:18;20.30;;;11.88;;
78296;SDS011;67555;47.660;19.622;2023-10-13T06:23:02;24.95;;;11.95;;
78296;SDS011;67555;47.660;19.622;2023-10-13T06:25:53;23.27;;;12.02;;
78296;SDS011;67555;47.660;19.622;2023-10-13T06:28:38;22.98;;;11.02;;
78296;SDS011;67555;47.660;19.622;2023-10-13T06:31:08;24.05;;;11.98;;
78296;SDS011;67555;47.660;19.622;2023-10-13T06:33:38;26.70;;;11.85;;
78296;SDS011;67555;47.660;19.622;2023-10-13T06:36:10;18.83;;;11.23;;
78296;SDS011;67555;47.660;19.622;2023-10-13T06:38:36;21.00;;;10.85;;
78296;SDS011;67555;47.660;19.622;2023-10-13T06:41:02;26.58;;;10.02;;
78296;SDS011;67555;47.660;19.622;2023-10-13T06:43:32;18.50;;;10.85;;
78296;SDS011;67555;47.660;19.622;2023-10-13T06:46:05;18.25;;;9.43;;
78296;SDS011;67555;47.660;19.622;2023-10-13T06:48:32;23.98;;;10.73;;
78296;SDS011;67555;47.660;19.622;2023-10-13T06:51:00;18.30;;;9.95;;
78296;SDS011;67555;47.660;19.622;2023-10-13T06:53:45;26.75;;;10.50;;
78296;SDS011;67555;47.660;19.622;2023-10-13T06:56:17;23.55;;;10.35;;
78296;SDS011;67555;47.660;19.622;2023-10-13T06:58:55;15.75;;;9.20;;
78296;SDS011;67555;47.660;19.622;2023-10-13T07:01:31;28.35;;;10.45;;
78296;SDS011;67555;47.660;19.622;2023-10-13T07:04:03;24.02;;;9.25;;
78296;SDS011;67555;47.660;19.622;2023-10-13T07:06:38;22.58;;;9.60;;
78296;SDS011;67555;47.660;19.622;2023-10-13T07:09:07;19.63;;;10.38;;
78296;SDS011;67555;47.660;19.622;2023-10-13T07:11:40;16.25;;;9.05;;
78296;SDS011;67555;47.660;19.622;2023-10-13T07:14:08;15.55;;;9.10;;
78296;SDS011;67555;47.660;19.622;2023-10-13T07:17:24;20.52;;;9.68;;
78296;SDS011;67555;47.660;19.622;2023-10-13T07:19:32;16.85;;;10.13;;
78296;SDS011;67555;47.660;19.622;2023-10-13T07:21:59;21.50;;;8.50;;
78296;SDS011;67555;47.660;19.622;2023-10-13T07:24:49;19.73;;;9.57;;
78296;SDS011;67555;47.660;19.622;2023-10-13T07:27:19;18.50;;;8.75;;
78296;SDS011;67555;47.660;19.622;2023-10-13T07:29:55;15.45;;;9.00;;
78296;SDS011;67555;47.660;19.622;2023-10-13T07:32:30;22.88;;;9.15;;
78296;SDS011;67555;47.660;19.622;2023-10-13T07:37:26;19.40;;;9.63;;
78296;SDS011;67555;47.660;19.622;2023-10-13T07:39:54;15.82;;;9.13;;
78296;SDS011;67555;47.660;19.622;2023-10-13T07:42:26;17.08;;;8.80;;
78296;SDS011;67555;47.660;19.622;2023-10-13T07:45:12;14.40;;;7.90;;
78296;SDS011;67555;47.660;19.622;2023-10-13T07:47:38;17.33;;;8.82;;
78296;SDS011;67555;47.660;19.622;2023-10-13T07:50:05;19.52;;;9.18;;
78296;SDS011;67555;47.660;19.622;2023-10-13T07:52:32;14.43;;;8.35;;
78296;SDS011;67555;47.660;19.622;2023-10-13T07:55:06;15.20;;;8.10;;
78296;SDS011;67555;47.660;19.622;2023-10-13T07:57:44;13.43;;;8.10;;
78296;SDS011;67555;47.660;19.622;2023-10-13T08:00:20;15.88;;;8.48;;
78296;SDS011;67555;47.660;19.622;2023-10-13T08:02:56;19.50;;;8.85;;
78296;SDS011;67555;47.660;19.622;2023-10-13T08:05:34;15.02;;;8.77;;
78296;SDS011;67555;47.660;19.622;2023-10-13T08:08:26;15.60;;;8.63;;
78296;SDS011;67555;47.660;19.622;2023-10-13T08:11:11;20.65;;;8.23;;
78296;SDS011;67555;47.660;19.622;2023-10-13T08:13:49;22.02;;;9.90;;
78296;SDS011;67555;47.660;19.622;2023-10-13T08:16:33;21.92;;;10.30;;
78296;SDS011;67555;47.660;19.622;2023-10-13T08:19:22;14.85;;;8.68;;
78296;SDS011;67555;47.660;19.622;2023-10-13T08:21:52;16.95;;;9.00;;
78296;SDS011;67555;47.660;19.622;2023-10-13T08:24:24;16.02;;;9.07;;
78296;SDS011;67555;47.660;19.622;2023-10-13T08:27:12;17.70;;;9.45;;
78296;SDS011;67555;47.660;19.622;2023-10-13T08:29:39;19.48;;;10.30;;
78296;SDS011;67555;47.660;19.622;2023-10-13T08:34:53;24.65;;;12.80;;
78296;SDS011;67555;47.660;19.622;2023-10-13T08:37:22;25.13;;;12.75;;
78296;SDS011;67555;47.660;19.622;2023-10-13T08:39:49;26.98;;;12.35;;
78296;SDS011;67555;47.660;19.622;2023-10-13T08:42:28;29.80;;;13.80;;
78296;SDS011;67555;47.660;19.622;2023-10-13T08:48:06;28.88;;;12.02;;
78296;SDS011;67555;47.660;19.622;2023-10-13T08:50:45;25.30;;;12.85;;
78296;SDS011;67555;47.660;19.622;2023-10-13T08:55:59;18.95;;;10.20;;
78296;SDS011;67555;47.660;19.622;2023-10-13T08:58:28;20.85;;;10.43;;
78296;SDS011;67555;47.660;19.622;2023-10-13T09:01:12;17.63;;;9.88;;
78296;SDS011;67555;47.660;19.622;2023-10-13T09:03:58;21.38;;;10.48;;
78296;SDS011;67555;47.660;19.622;2023-10-13T09:06:47;15.43;;;9.27;;
78296;SDS011;67555;47.660;19.622;2023-10-13T09:09:22;13.48;;;8.82;;
78296;SDS011;67555;47.660;19.622;2023-10-13T09:12:11;20.30;;;9.45;;
78296;SDS011;67555;47.660;19.622;2023-10-13T09:14:43;16.15;;;8.73;;
78296;SDS011;67555;47.660;19.622;2023-10-13T09:17:10;22.85;;;8.95;;
78296;SDS011;67555;47.660;19.622;2023-10-13T09:19:49;13.77;;;8.93;;
78296;SDS011;67555;47.660;19.622;2023-10-13T09:22:23;16.67;;;8.35;;
78296;SDS011;67555;47.660;19.622;2023-10-13T09:24:59;17.00;;;7.72;;
78296;SDS011;67555;47.660;19.622;2023-10-13T09:27:38;13.50;;;8.20;;
78296;SDS011;67555;47.660;19.622;2023-10-13T09:30:05;21.33;;;9.05;;
78296;SDS011;67555;47.660;19.622;2023-10-13T09:32:44;18.70;;;9.07;;
78296;SDS011;67555;47.660;19.622;2023-10-13T09:35:19;21.08;;;8.93;;
78296;SDS011;67555;47.660;19.622;2023-10-13T09:37:48;18.83;;;8.70;;
78296;SDS011;67555;47.660;19.622;2023-10-13T09:40:16;13.27;;;8.05;;
78296;SDS011;67555;47.660;19.622;2023-10-13T09:42:58;19.25;;;8.38;;
78296;SDS011;67555;47.660;19.622;2023-10-13T09:45:33;15.82;;;7.95;;
78296;SDS011;67555;47.660;19.622;2023-10-13T09:48:45;24.13;;;8.55;;
78296;SDS011;67555;47.660;19.622;2023-10-13T09:51:14;20.48;;;8.88;;
78296;SDS011;67555;47.660;19.622;2023-10-13T09:53:47;18.02;;;8.68;;
78296;SDS011;67555;47.660;19.622;2023-10-13T09:56:26;15.38;;;7.72;;
78296;SDS011;67555;47.660;19.622;2023-10-13T09:59:00;15.20;;;7.90;;
78296;SDS011;67555;47.660;19.622;2023-10-13T10:01:33;16.27;;;8.07;;
78296;SDS011;67555;47.660;19.622;2023-10-13T10:04:09;16.85;;;8.30;;
78296;SDS011;67555;47.660;19.622;2023-10-13T10:06:51;16.20;;;8.32;;
78296;SDS011;67555;47.660;19.622;2023-10-13T10:09:19;14.15;;;7.35;;
78296;SDS011;67555;47.660;19.622;2023-10-13T10:15:03;14.27;;;7.63;;
78296;SDS011;67555;47.660;19.622;2023-10-13T10:17:53;16.45;;;7.40;;
78296;SDS011;67555;47.660;19.622;2023-10-13T10:20:30;12.98;;;7.25;;
78296;SDS011;67555;47.660;19.622;2023-10-13T10:23:10;12.80;;;6.93;;
78296;SDS011;67555;47.660;19.622;2023-10-13T10:25:52;12.80;;;6.30;;
78296;SDS011;67555;47.660;19.622;2023-10-13T10:28:34;12.35;;;6.72;;
78296;SDS011;67555;47.660;19.622;2023-10-13T10:31:05;15.32;;;6.95;;
78296;SDS011;67555;47.660;19.622;2023-10-13T10:33:51;12.73;;;6.20;;
78296;SDS011;67555;47.660;19.622;2023-10-13T10:36:39;15.80;;;7.30;;
78296;SDS011;67555;47.660;19.622;2023-10-13T10:39:08;13.07;;;6.25;;
78296;SDS011;67555;47.660;19.622;2023-10-13T10:41:36;12.30;;;6.97;;
78296;SDS011;67555;47.660;19.622;2023-10-13T10:44:14;12.75;;;6.75;;
78296;SDS011;67555;47.660;19.622;2023-10-13T10:46:41;14.38;;;6.88;;
78296;SDS011;67555;47.660;19.622;2023-10-13T10:49:17;12.43;;;6.50;;
78296;SDS011;67555;47.660;19.622;2023-10-13T10:51:52;12.18;;;7.13;;
78296;SDS011;67555;47.660;19.622;2023-10-13T10:54:30;11.13;;;5.75;;
78296;SDS011;67555;47.660;19.622;2023-10-13T10:56:59;12.77;;;4.97;;
78296;SDS011;67555;47.660;19.622;2023-10-13T10:59:42;11.05;;;4.95;;
78296;SDS011;67555;47.660;19.622;2023-10-13T11:02:08;9.82;;;6.05;;
78296;SDS011;67555;47.660;19.622;2023-10-13T11:04:40;14.90;;;6.47;;
78296;SDS011;67555;47.660;19.622;2023-10-13T11:07:24;10.98;;;5.63;;
78296;SDS011;67555;47.660;19.622;2023-10-13T11:09:52;14.82;;;6.20;;
78296;SDS011;67555;47.660;19.622;2023-10-13T11:12:29;11.85;;;6.03;;
78296;SDS011;67555;47.660;19.622;2023-10-13T11:15:08;14.05;;;6.18;;
78296;SDS011;67555;47.660;19.622;2023-10-13T11:18:00;17.33;;;6.30;;
78296;SDS011;67555;47.660;19.622;2023-10-13T11:20:30;14.10;;;5.93;;
78296;SDS011;67555;47.660;19.622;2023-10-13T11:23:00;14.70;;;6.13;;
78296;SDS011;67555;47.660;19.622;2023-10-13T11:25:30;9.80;;;5.18;;
78296;SDS011;67555;47.660;19.622;2023-10-13T11:28:15;10.95;;;6.00;;
78296;SDS011;67555;47.660;19.622;2023-10-13T11:30:45;9.77;;;5.20;;
78296;SDS011;67555;47.660;19.622;2023-10-13T11:33:15;14.95;;;7.13;;
78296;SDS011;67555;47.660;19.622;2023-10-13T11:35:49;10.68;;;6.03;;
78296;SDS011;67555;47.660;19.622;2023-10-13T11:38:17;21.25;;;6.18;;
78296;SDS011;67555;47.660;19.622;2023-10-13T11:40:59;16.50;;;6.18;;
78296;SDS011;67555;47.660;19.622;2023-10-13T11:43:41;17.98;;;5.40;;
78296;SDS011;67555;47.660;19.622;2023-10-13T11:46:21;11.88;;;5.78;;
78296;SDS011;67555;47.660;19.622;2023-10-13T11:49:08;10.90;;;5.30;;
78296;SDS011;67555;47.660;19.622;2023-10-13T11:51:40;11.05;;;4.95;;
78296;SDS011;67555;47.660;19.622;2023-10-13T11:54:10;10.68;;;5.55;;
78296;SDS011;67555;47.660;19.622;2023-10-13T11:56:40;9.55;;;5.75;;
78296;SDS011;67555;47.660;19.622;2023-10-13T11:59:06;16.08;;;5.60;;
78296;SDS011;67555;47.660;19.622;2023-10-13T12:04:26;13.75;;;5.00;;
78296;SDS011;67555;47.660;19.622;2023-10-13T12:07:11;13.18;;;5.70;;
78296;SDS011;67555;47.660;19.622;2023-10-13T12:09:42;10.98;;;6.35;;
78296;SDS011;67555;47.660;19.622;2023-10-13T12:12:21;9.77;;;5.85;;
78296;SDS011;67555;47.660;19.622;2023-10-13T12:14:50;11.88;;;6.05;;
78296;SDS011;67555;47.660;19.622;2023-10-13T12:17:23;15.75;;;6.80;;
78296;SDS011;67555;47.660;19.622;2023-10-13T12:19:53;14.25;;;5.65;;
78296;SDS011;67555;47.660;19.622;2023-10-13T12:22:19;13.48;;;5.78;;
78296;SDS011;67555;47.660;19.622;2023-10-13T12:25:00;10.10;;;5.15;;
78296;SDS011;67555;47.660;19.622;2023-10-13T12:27:30;12.05;;;6.72;;
78296;SDS011;67555;47.660;19.622;2023-10-13T12:30:11;9.15;;;5.38;;
78296;SDS011;67555;47.660;19.622;2023-10-13T12:32:39;11.65;;;5.72;;
78296;SDS011;67555;47.660;19.622;2023-10-13T12:35:10;17.17;;;5.80;;
78296;SDS011;67555;47.660;19.622;2023-10-13T12:37:36;14.23;;;5.85;;
78296;SDS011;67555;47.660;19.622;2023-10-13T12:40:05;11.02;;;5.80;;
78296;SDS011;67555;47.660;19.622;2023-10-13T12:42:50;13.82;;;5.63;;
78296;SDS011;67555;47.660;19.622;2023-10-13T12:45:53;14.82;;;5.38;;
78296;SDS011;67555;47.660;19.622;2023-10-13T12:48:38;12.25;;;5.40;;
78296;SDS011;67555;47.660;19.622;2023-10-13T12:51:23;11.80;;;5.18;;
78296;SDS011;67555;47.660;19.622;2023-10-13T12:53:57;13.65;;;4.68;;
78296;SDS011;67555;47.660;19.622;2023-10-13T12:56:38;18.65;;;6.03;;
78296;SDS011;67555;47.660;19.622;2023-10-13T13:01:34;12.20;;;5.57;;
78296;SDS011;67555;47.660;19.622;2023-10-13T13:04:00;13.02;;;5.97;;
78296;SDS011;67555;47.660;19.622;2023-10-13T13:06:28;14.52;;;5.15;;
78296;SDS011;67555;47.660;19.622;2023-10-13T13:08:56;13.70;;;5.30;;
78296;SDS011;67555;47.660;19.622;2023-10-13T13:13:49;18.30;;;6.13;;
78296;SDS011;67555;47.660;19.622;2023-10-13T13:16:35;10.20;;;5.70;;
78296;SDS011;67555;47.660;19.622;2023-10-13T13:19:04;19.20;;;5.70;;
78296;SDS011;67555;47.660;19.622;2023-10-13T13:21:39;12.32;;;4.70;;
78296;SDS011;67555;47.660;19.622;2023-10-13T13:24:08;13.30;;;5.53;;
78296;SDS011;67555;47.660;19.622;2023-10-13T13:26:39;14.27;;;5.55;;
78296;SDS011;67555;47.660;19.622;2023-10-13T13:29:06;11.18;;;5.75;;
78296;SDS011;67555;47.660;19.622;2023-10-13T13:31:35;7.90;;;4.95;;
78296;SDS011;67555;47.660;19.622;2023-10-13T13:34:06;14.48;;;5.68;;
78296;SDS011;67555;47.660;19.622;2023-10-13T13:36:35;14.90;;;6.07;;
78296;SDS011;67555;47.660;19.622;2023-10-13T13:39:01;12.88;;;6.25;;
78296;SDS011;67555;47.660;19.622;2023-10-13T13:41:27;16.20;;;6.65;;
78296;SDS011;67555;47.660;19.622;2023-10-13T13:43:57;9.60;;;5.10;;
78296;SDS011;67555;47.660;19.622;2023-10-13T13:46:33;16.10;;;6.72;;
78296;SDS011;67555;47.660;19.622;2023-10-13T13:49:06;14.80;;;5.45;;
78296;SDS011;67555;47.660;19.622;2023-10-13T13:51:33;14.82;;;6.05;;
78296;SDS011;67555;47.660;19.622;2023-10-13T13:54:03;9.55;;;5.53;;
78296;SDS011;67555;47.660;19.622;2023-10-13T13:56:31;15.32;;;6.63;;
78296;SDS011;67555;47.660;19.622;2023-10-13T13:59:03;17.42;;;6.22;;
78296;SDS011;67555;47.660;19.622;2023-10-13T14:01:32;13.30;;;6.57;;
78296;SDS011;67555;47.660;19.622;2023-10-13T14:04:02;16.70;;;6.20;;
78296;SDS011;67555;47.660;19.622;2023-10-13T14:06:31;12.65;;;6.80;;
78296;SDS011;67555;47.660;19.622;2023-10-13T14:08:59;13.98;;;6.07;;
78296;SDS011;67555;47.660;19.622;2023-10-13T14:11:29;12.00;;;5.68;;
78296;SDS011;67555;47.660;19.622;2023-10-13T14:14:05;12.38;;;5.25;;
78296;SDS011;67555;47.660;19.622;2023-10-13T14:16:39;16.30;;;7.00;;
78296;SDS011;67555;47.660;19.622;2023-10-13T14:19:13;18.83;;;6.30;;
78296;SDS011;67555;47.660;19.622;2023-10-13T14:24:21;22.42;;;6.55;;
78296;SDS011;67555;47.660;19.622;2023-10-13T14:26:58;15.60;;;5.72;;
78296;SDS011;67555;47.660;19.622;2023-10-13T14:29:37;14.52;;;6.82;;
78296;SDS011;67555;47.660;19.622;2023-10-13T14:32:07;13.23;;;6.40;;
78296;SDS011;67555;47.660;19.622;2023-10-13T14:34:41;21.58;;;6.05;;
78296;SDS011;67555;47.660;19.622;2023-10-13T14:37:09;13.30;;;5.85;;
78296;SDS011;67555;47.660;19.622;2023-10-13T14:39:39;14.00;;;5.85;;
78296;SDS011;67555;47.660;19.622;2023-10-13T14:42:06;15.13;;;6.80;;
78296;SDS011;67555;47.660;19.622;2023-10-13T14:44:39;14.43;;;5.65;;
78296;SDS011;67555;47.660;19.622;2023-10-13T14:47:04;18.83;;;6.18;;
78296;SDS011;67555;47.660;19.622;2023-10-13T14:49:30;13.73;;;6.93;;
78296;SDS011;67555;47.660;19.622;2023-10-13T14:51:56;11.98;;;5.97;;
78296;SDS011;67555;47.660;19.622;2023-10-13T14:54:24;13.98;;;6.10;;
78296;SDS011;67555;47.660;19.622;2023-10-13T14:59:33;22.27;;;6.20;;
78296;SDS011;67555;47.660;19.622;2023-10-13T15:02:03;18.50;;;5.97;;
78296;SDS011;67555;47.660;19.622;2023-10-13T15:04:29;14.15;;;6.78;;
78296;SDS011;67555;47.660;19.622;2023-10-13T15:07:00;14.50;;;5.65;;
78296;SDS011;67555;47.660;19.622;2023-10-13T15:09:34;13.63;;;6.22;;
78296;SDS011;67555;47.660;19.622;2023-10-13T15:12:01;12.63;;;5.65;;
78296;SDS011;67555;47.660;19.622;2023-10-13T15:14:34;15.63;;;6.10;;
78296;SDS011;67555;47.660;19.622;2023-10-13T15:17:02;16.77;;;6.40;;
78296;SDS011;67555;47.660;19.622;2023-10-13T15:19:31;20.73;;;6.38;;
78296;SDS011;67555;47.660;19.622;2023-10-13T15:22:01;13.98;;;5.45;;
78296;SDS011;67555;47.660;19.622;2023-10-13T15:24:31;15.32;;;6.60;;
78296;SDS011;67555;47.660;19.622;2023-10-13T15:27:01;19.95;;;6.78;;
78296;SDS011;67555;47.660;19.622;2023-10-13T15:29:33;22.25;;;6.68;;
78296;SDS011;67555;47.660;19.622;2023-10-13T15:32:03;15.10;;;5.82;;